sensor_id;sensor_type;location;lat;lon;timestamp;temperature;humidity
4548;DHT22;2286;51.570;7.090;2022-11-15T00:00:29;9.10;71.90
4548;DHT22;2286;51.570;7.090;2022-11-15T00:02:55;9.10;89.80
4548;DHT22;2286;51.570;7.090;2022-11-15T00:05:22;9.10;99.90
4548;DHT22;2286;51.570;7.090;2022-11-15T00:07:49;9.10;99.90
4548;DHT22;2286;51.570;7.090;2022-11-15T00:10:17;9.10;99.90
4548;DHT22;2286;51.570;7.090;2022-11-15T00:12:44;9.10;99.90
4548;DHT22;2286;51.570;7.090;2022-11-15T00:15:11;9.10;99.90
4548;DHT22;2286;51.570;7.090;2022-11-15T00:17:38;9.10;99.90
4548;DHT22;2286;51.570;7.090;2022-11-15T00:20:05;9.10;99.90
4548;DHT22;2286;51.570;7.090;2022-11-15T00:22:32;9.20;99.90
4548;DHT22;2286;51.570;7.090;2022-11-15T00:24:59;9.20;99.90
4548;DHT22;2286;51.570;7.090;2022-11-15T00:27:28;9.20;99.90
4548;DHT22;2286;51.570;7.090;2022-11-15T00:29:54;9.20;99.90
4548;DHT22;2286;51.570;7.090;2022-11-15T00:32:21;9.20;99.90
4548;DHT22;2286;51.570;7.090;2022-11-15T00:34:49;9.20;1.00
4548;DHT22;2286;51.570;7.090;2022-11-15T00:37:15;9.20;1.00
4548;DHT22;2286;51.570;7.090;2022-11-15T00:39:42;9.30;1.00
4548;DHT22;2286;51.570;7.090;2022-11-15T00:42:09;9.30;1.00
4548;DHT22;2286;51.570;7.090;2022-11-15T00:44:37;9.30;1.00
4548;DHT22;2286;51.570;7.090;2022-11-15T00:47:04;9.30;1.00
4548;DHT22;2286;51.570;7.090;2022-11-15T00:49:31;9.30;1.00
4548;DHT22;2286;51.570;7.090;2022-11-15T00:51:58;9.30;1.00
4548;DHT22;2286;51.570;7.090;2022-11-15T00:54:24;9.30;1.00
4548;DHT22;2286;51.570;7.090;2022-11-15T00:56:51;9.30;22.80
4548;DHT22;2286;51.570;7.090;2022-11-15T00:59:18;9.30;45.20
4548;DHT22;2286;51.570;7.090;2022-11-15T01:01:46;9.30;96.60
4548;DHT22;2286;51.570;7.090;2022-11-15T01:04:13;9.30;99.90
4548;DHT22;2286;51.570;7.090;2022-11-15T01:06:40;9.30;99.90
4548;DHT22;2286;51.570;7.090;2022-11-15T01:09:07;9.30;99.90
4548;DHT22;2286;51.570;7.090;2022-11-15T01:11:34;9.30;99.90
4548;DHT22;2286;51.570;7.090;2022-11-15T01:14:00;9.30;99.90
4548;DHT22;2286;51.570;7.090;2022-11-15T01:16:27;9.40;99.90
4548;DHT22;2286;51.570;7.090;2022-11-15T01:18:55;9.40;99.90
4548;DHT22;2286;51.570;7.090;2022-11-15T01:21:22;9.50;99.90
4548;DHT22;2286;51.570;7.090;2022-11-15T01:23:52;9.50;99.90
4548;DHT22;2286;51.570;7.090;2022-11-15T01:26:19;9.70;99.90
4548;DHT22;2286;51.570;7.090;2022-11-15T01:28:46;9.70;99.90
4548;DHT22;2286;51.570;7.090;2022-11-15T01:31:15;9.80;99.90
4548;DHT22;2286;51.570;7.090;2022-11-15T01:33:42;10.00;99.90
4548;DHT22;2286;51.570;7.090;2022-11-15T01:36:12;10.10;99.90
4548;DHT22;2286;51.570;7.090;2022-11-15T01:38:40;10.10;99.90
4548;DHT22;2286;51.570;7.090;2022-11-15T01:41:11;10.10;99.90
4548;DHT22;2286;51.570;7.090;2022-11-15T01:43:40;10.30;99.90
4548;DHT22;2286;51.570;7.090;2022-11-15T01:46:18;10.30;99.90
4548;DHT22;2286;51.570;7.090;2022-11-15T01:48:48;10.40;99.90
4548;DHT22;2286;51.570;7.090;2022-11-15T01:51:19;10.40;99.90
4548;DHT22;2286;51.570;7.090;2022-11-15T01:53:49;10.50;99.90
4548;DHT22;2286;51.570;7.090;2022-11-15T01:56:20;10.50;99.90
4548;DHT22;2286;51.570;7.090;2022-11-15T01:58:49;10.50;99.90
4548;DHT22;2286;51.570;7.090;2022-11-15T02:01:17;10.50;99.90
4548;DHT22;2286;51.570;7.090;2022-11-15T02:03:48;10.50;99.90
4548;DHT22;2286;51.570;7.090;2022-11-15T02:06:18;10.50;99.90
4548;DHT22;2286;51.570;7.090;2022-11-15T02:08:45;10.50;99.90
4548;DHT22;2286;51.570;7.090;2022-11-15T02:11:12;10.40;99.90
4548;DHT22;2286;51.570;7.090;2022-11-15T02:13:39;10.40;99.90
4548;DHT22;2286;51.570;7.090;2022-11-15T02:16:14;10.40;99.90
4548;DHT22;2286;51.570;7.090;2022-11-15T02:18:50;10.40;99.90
4548;DHT22;2286;51.570;7.090;2022-11-15T02:21:28;10.50;99.90
4548;DHT22;2286;51.570;7.090;2022-11-15T02:24:32;10.50;99.90
4548;DHT22;2286;51.570;7.090;2022-11-15T02:27:28;10.60;99.90
4548;DHT22;2286;51.570;7.090;2022-11-15T02:30:25;10.70;99.90
4548;DHT22;2286;51.570;7.090;2022-11-15T02:32:59;10.70;99.90
4548;DHT22;2286;51.570;7.090;2022-11-15T02:35:33;10.70;99.90
4548;DHT22;2286;51.570;7.090;2022-11-15T02:38:06;10.80;99.90
4548;DHT22;2286;51.570;7.090;2022-11-15T02:40:38;10.70;99.90
4548;DHT22;2286;51.570;7.090;2022-11-15T02:43:10;10.80;99.90
4548;DHT22;2286;51.570;7.090;2022-11-15T02:46:01;10.80;99.90
4548;DHT22;2286;51.570;7.090;2022-11-15T02:48:31;10.90;99.90
4548;DHT22;2286;51.570;7.090;2022-11-15T02:50:59;10.90;99.90
4548;DHT22;2286;51.570;7.090;2022-11-15T02:53:27;11.00;99.90
4548;DHT22;2286;51.570;7.090;2022-11-15T02:55:55;11.10;99.90
4548;DHT22;2286;51.570;7.090;2022-11-15T02:58:38;11.10;99.90
4548;DHT22;2286;51.570;7.090;2022-11-15T03:01:15;11.10;99.90
4548;DHT22;2286;51.570;7.090;2022-11-15T03:03:57;11.10;99.90
4548;DHT22;2286;51.570;7.090;2022-11-15T03:06:33;11.20;99.90
4548;DHT22;2286;51.570;7.090;2022-11-15T03:09:07;11.20;99.90
4548;DHT22;2286;51.570;7.090;2022-11-15T03:11:37;11.20;99.90
4548;DHT22;2286;51.570;7.090;2022-11-15T03:14:11;11.30;99.90
4548;DHT22;2286;51.570;7.090;2022-11-15T03:16:44;11.30;99.90
4548;DHT22;2286;51.570;7.090;2022-11-15T03:19:17;11.30;99.90
4548;DHT22;2286;51.570;7.090;2022-11-15T03:21:47;11.40;99.90
4548;DHT22;2286;51.570;7.090;2022-11-15T03:24:17;11.40;99.90
4548;DHT22;2286;51.570;7.090;2022-11-15T03:26:48;11.40;99.90
4548;DHT22;2286;51.570;7.090;2022-11-15T03:29:19;11.40;99.90
4548;DHT22;2286;51.570;7.090;2022-11-15T03:31:53;11.40;99.90
4548;DHT22;2286;51.570;7.090;2022-11-15T03:34:27;11.50;99.90
4548;DHT22;2286;51.570;7.090;2022-11-15T03:36:56;11.40;99.90
4548;DHT22;2286;51.570;7.090;2022-11-15T03:39:23;11.40;99.90
4548;DHT22;2286;51.570;7.090;2022-11-15T03:41:59;11.50;99.90
4548;DHT22;2286;51.570;7.090;2022-11-15T03:44:36;11.50;99.90
4548;DHT22;2286;51.570;7.090;2022-11-15T03:47:11;11.60;99.90
4548;DHT22;2286;51.570;7.090;2022-11-15T03:49:44;11.60;99.90
4548;DHT22;2286;51.570;7.090;2022-11-15T03:52:12;11.60;99.90
4548;DHT22;2286;51.570;7.090;2022-11-15T03:54:48;11.60;99.90
4548;DHT22;2286;51.570;7.090;2022-11-15T03:57:16;11.60;99.90
4548;DHT22;2286;51.570;7.090;2022-11-15T03:59:43;11.60;99.90
4548;DHT22;2286;51.570;7.090;2022-11-15T04:02:11;11.60;99.90
4548;DHT22;2286;51.570;7.090;2022-11-15T04:04:38;11.60;99.90
4548;DHT22;2286;51.570;7.090;2022-11-15T04:07:06;11.60;99.90
4548;DHT22;2286;51.570;7.090;2022-11-15T04:09:33;11.60;99.90
4548;DHT22;2286;51.570;7.090;2022-11-15T04:12:20;11.60;99.90
4548;DHT22;2286;51.570;7.090;2022-11-15T04:14:57;11.60;99.90
4548;DHT22;2286;51.570;7.090;2022-11-15T04:17:39;11.50;99.90
4548;DHT22;2286;51.570;7.090;2022-11-15T04:20:09;11.60;99.90
4548;DHT22;2286;51.570;7.090;2022-11-15T04:22:55;11.70;99.90
4548;DHT22;2286;51.570;7.090;2022-11-15T04:25:40;11.60;99.90
4548;DHT22;2286;51.570;7.090;2022-11-15T04:28:07;11.70;99.90
4548;DHT22;2286;51.570;7.090;2022-11-15T04:30:34;11.70;99.90
4548;DHT22;2286;51.570;7.090;2022-11-15T04:33:02;11.70;99.90
4548;DHT22;2286;51.570;7.090;2022-11-15T04:35:29;11.80;99.90
4548;DHT22;2286;51.570;7.090;2022-11-15T04:37:57;11.80;99.90
4548;DHT22;2286;51.570;7.090;2022-11-15T04:40:23;11.80;99.90
4548;DHT22;2286;51.570;7.090;2022-11-15T04:42:50;11.80;99.90
4548;DHT22;2286;51.570;7.090;2022-11-15T04:45:17;11.90;99.90
4548;DHT22;2286;51.570;7.090;2022-11-15T04:47:45;11.80;99.90
4548;DHT22;2286;51.570;7.090;2022-11-15T04:50:13;11.80;99.90
4548;DHT22;2286;51.570;7.090;2022-11-15T04:52:41;11.80;99.90
4548;DHT22;2286;51.570;7.090;2022-11-15T04:55:09;11.80;99.90
4548;DHT22;2286;51.570;7.090;2022-11-15T04:57:37;11.70;99.90
4548;DHT22;2286;51.570;7.090;2022-11-15T05:00:06;11.70;99.90
4548;DHT22;2286;51.570;7.090;2022-11-15T05:02:33;11.70;99.90
4548;DHT22;2286;51.570;7.090;2022-11-15T05:05:19;11.60;99.90
4548;DHT22;2286;51.570;7.090;2022-11-15T05:07:46;11.60;99.90
4548;DHT22;2286;51.570;7.090;2022-11-15T05:10:13;11.70;99.90
4548;DHT22;2286;51.570;7.090;2022-11-15T05:12:40;11.80;99.90
4548;DHT22;2286;51.570;7.090;2022-11-15T05:15:08;11.70;99.90
4548;DHT22;2286;51.570;7.090;2022-11-15T05:17:35;11.80;99.90
4548;DHT22;2286;51.570;7.090;2022-11-15T05:20:03;11.80;99.90
4548;DHT22;2286;51.570;7.090;2022-11-15T05:22:31;11.80;99.90
4548;DHT22;2286;51.570;7.090;2022-11-15T05:24:58;11.80;99.90
4548;DHT22;2286;51.570;7.090;2022-11-15T05:27:25;11.80;99.90
4548;DHT22;2286;51.570;7.090;2022-11-15T05:29:52;11.90;99.90
4548;DHT22;2286;51.570;7.090;2022-11-15T05:32:19;11.90;99.90
4548;DHT22;2286;51.570;7.090;2022-11-15T05:34:47;11.90;99.90
4548;DHT22;2286;51.570;7.090;2022-11-15T05:37:14;12.00;99.90
4548;DHT22;2286;51.570;7.090;2022-11-15T05:39:43;12.00;99.90
4548;DHT22;2286;51.570;7.090;2022-11-15T05:42:12;12.00;99.90
4548;DHT22;2286;51.570;7.090;2022-11-15T05:44:43;12.00;99.90
4548;DHT22;2286;51.570;7.090;2022-11-15T05:47:13;12.10;99.90
4548;DHT22;2286;51.570;7.090;2022-11-15T05:49:43;12.00;99.90
4548;DHT22;2286;51.570;7.090;2022-11-15T05:52:12;12.00;99.90
4548;DHT22;2286;51.570;7.090;2022-11-15T05:54:41;12.00;99.90
4548;DHT22;2286;51.570;7.090;2022-11-15T05:57:09;12.00;99.90
4548;DHT22;2286;51.570;7.090;2022-11-15T05:59:37;12.00;99.90
4548;DHT22;2286;51.570;7.090;2022-11-15T06:02:06;12.00;99.90
4548;DHT22;2286;51.570;7.090;2022-11-15T06:04:33;11.90;99.90
4548;DHT22;2286;51.570;7.090;2022-11-15T06:07:00;11.90;99.90
4548;DHT22;2286;51.570;7.090;2022-11-15T06:09:27;11.80;99.90
4548;DHT22;2286;51.570;7.090;2022-11-15T06:11:54;11.80;99.90
4548;DHT22;2286;51.570;7.090;2022-11-15T06:14:22;11.80;99.90
4548;DHT22;2286;51.570;7.090;2022-11-15T06:16:49;11.70;99.90
4548;DHT22;2286;51.570;7.090;2022-11-15T06:19:16;11.70;99.90
4548;DHT22;2286;51.570;7.090;2022-11-15T06:21:43;11.60;99.90
4548;DHT22;2286;51.570;7.090;2022-11-15T06:24:10;11.60;99.90
4548;DHT22;2286;51.570;7.090;2022-11-15T06:26:37;11.60;99.90
4548;DHT22;2286;51.570;7.090;2022-11-15T06:29:04;11.60;99.90
4548;DHT22;2286;51.570;7.090;2022-11-15T06:31:33;11.60;99.90
4548;DHT22;2286;51.570;7.090;2022-11-15T06:34:00;11.50;99.90
4548;DHT22;2286;51.570;7.090;2022-11-15T06:36:27;11.60;99.90
4548;DHT22;2286;51.570;7.090;2022-11-15T06:38:54;11.60;99.90
4548;DHT22;2286;51.570;7.090;2022-11-15T06:41:21;11.60;99.90
4548;DHT22;2286;51.570;7.090;2022-11-15T06:43:48;11.70;99.90
4548;DHT22;2286;51.570;7.090;2022-11-15T06:46:16;11.70;99.90
4548;DHT22;2286;51.570;7.090;2022-11-15T06:48:44;11.70;99.90
4548;DHT22;2286;51.570;7.090;2022-11-15T06:51:11;11.70;99.90
4548;DHT22;2286;51.570;7.090;2022-11-15T06:53:38;11.70;99.90
4548;DHT22;2286;51.570;7.090;2022-11-15T06:56:06;11.70;99.90
4548;DHT22;2286;51.570;7.090;2022-11-15T06:58:34;11.70;99.90
4548;DHT22;2286;51.570;7.090;2022-11-15T07:01:03;11.70;99.90
4548;DHT22;2286;51.570;7.090;2022-11-15T07:03:31;11.80;99.90
4548;DHT22;2286;51.570;7.090;2022-11-15T07:05:59;11.70;99.90
4548;DHT22;2286;51.570;7.090;2022-11-15T07:08:27;11.70;99.90
4548;DHT22;2286;51.570;7.090;2022-11-15T07:10:57;11.70;99.90
4548;DHT22;2286;51.570;7.090;2022-11-15T07:13:25;11.70;99.90
4548;DHT22;2286;51.570;7.090;2022-11-15T07:15:52;11.70;99.90
4548;DHT22;2286;51.570;7.090;2022-11-15T07:18:20;11.70;99.90
4548;DHT22;2286;51.570;7.090;2022-11-15T07:20:47;11.80;99.90
4548;DHT22;2286;51.570;7.090;2022-11-15T07:23:15;11.80;99.90
4548;DHT22;2286;51.570;7.090;2022-11-15T07:25:42;11.80;99.90
4548;DHT22;2286;51.570;7.090;2022-11-15T07:28:09;11.80;99.90
4548;DHT22;2286;51.570;7.090;2022-11-15T07:30:36;11.80;99.90
4548;DHT22;2286;51.570;7.090;2022-11-15T07:33:03;11.80;99.90
4548;DHT22;2286;51.570;7.090;2022-11-15T07:35:30;11.90;99.90
4548;DHT22;2286;51.570;7.090;2022-11-15T07:37:59;11.90;99.90
4548;DHT22;2286;51.570;7.090;2022-11-15T07:40:29;12.00;99.90
4548;DHT22;2286;51.570;7.090;2022-11-15T07:42:59;12.00;99.90
4548;DHT22;2286;51.570;7.090;2022-11-15T07:45:27;12.10;99.90
4548;DHT22;2286;51.570;7.090;2022-11-15T07:47:54;12.00;99.90
4548;DHT22;2286;51.570;7.090;2022-11-15T07:50:23;12.00;99.90
4548;DHT22;2286;51.570;7.090;2022-11-15T07:52:53;11.90;99.90
4548;DHT22;2286;51.570;7.090;2022-11-15T07:55:21;11.90;99.90
4548;DHT22;2286;51.570;7.090;2022-11-15T07:57:49;11.90;99.90
4548;DHT22;2286;51.570;7.090;2022-11-15T08:00:17;11.90;99.90
4548;DHT22;2286;51.570;7.090;2022-11-15T08:02:45;11.90;99.90
4548;DHT22;2286;51.570;7.090;2022-11-15T08:05:12;11.90;99.90
4548;DHT22;2286;51.570;7.090;2022-11-15T08:07:39;11.90;99.90
4548;DHT22;2286;51.570;7.090;2022-11-15T08:10:07;12.00;99.90
4548;DHT22;2286;51.570;7.090;2022-11-15T08:12:35;12.00;99.90
4548;DHT22;2286;51.570;7.090;2022-11-15T08:15:04;12.00;99.90
4548;DHT22;2286;51.570;7.090;2022-11-15T08:17:31;12.10;52.70
4548;DHT22;2286;51.570;7.090;2022-11-15T08:19:59;12.10;1.00
4548;DHT22;2286;51.570;7.090;2022-11-15T08:22:26;12.30;1.00
4548;DHT22;2286;51.570;7.090;2022-11-15T08:24:53;12.30;99.90
4548;DHT22;2286;51.570;7.090;2022-11-15T08:27:20;12.30;99.90
4548;DHT22;2286;51.570;7.090;2022-11-15T08:29:49;12.30;99.90
4548;DHT22;2286;51.570;7.090;2022-11-15T08:32:17;12.40;99.90
4548;DHT22;2286;51.570;7.090;2022-11-15T08:34:45;12.50;99.90
4548;DHT22;2286;51.570;7.090;2022-11-15T08:37:12;12.60;21.70
4548;DHT22;2286;51.570;7.090;2022-11-15T08:39:39;12.70;1.00
4548;DHT22;2286;51.570;7.090;2022-11-15T08:42:06;12.70;1.00
4548;DHT22;2286;51.570;7.090;2022-11-15T08:44:33;12.80;1.00
4548;DHT22;2286;51.570;7.090;2022-11-15T08:47:00;12.90;99.90
4548;DHT22;2286;51.570;7.090;2022-11-15T08:49:29;13.00;99.90
4548;DHT22;2286;51.570;7.090;2022-11-15T08:51:56;13.00;1.00
4548;DHT22;2286;51.570;7.090;2022-11-15T08:54:23;13.00;1.00
4548;DHT22;2286;51.570;7.090;2022-11-15T08:56:50;13.00;44.90
4548;DHT22;2286;51.570;7.090;2022-11-15T08:59:17;13.00;1.00
4548;DHT22;2286;51.570;7.090;2022-11-15T09:01:44;13.10;99.90
4548;DHT22;2286;51.570;7.090;2022-11-15T09:04:11;13.00;1.00
4548;DHT22;2286;51.570;7.090;2022-11-15T09:06:39;12.90;1.00
4548;DHT22;2286;51.570;7.090;2022-11-15T09:09:06;12.90;99.90
4548;DHT22;2286;51.570;7.090;2022-11-15T09:11:33;12.80;1.00
4548;DHT22;2286;51.570;7.090;2022-11-15T09:14:00;12.80;99.90
4548;DHT22;2286;51.570;7.090;2022-11-15T09:16:27;12.80;1.00
4548;DHT22;2286;51.570;7.090;2022-11-15T09:18:54;12.80;1.00
4548;DHT22;2286;51.570;7.090;2022-11-15T09:21:21;12.90;1.00
4548;DHT22;2286;51.570;7.090;2022-11-15T09:23:51;13.00;99.90
4548;DHT22;2286;51.570;7.090;2022-11-15T09:26:18;12.90;99.90
4548;DHT22;2286;51.570;7.090;2022-11-15T09:28:45;13.00;1.00
4548;DHT22;2286;51.570;7.090;2022-11-15T09:31:12;13.10;69.60
4548;DHT22;2286;51.570;7.090;2022-11-15T09:33:40;13.40;99.90
4548;DHT22;2286;51.570;7.090;2022-11-15T09:36:09;13.50;1.00
4548;DHT22;2286;51.570;7.090;2022-11-15T09:38:37;13.60;99.90
4548;DHT22;2286;51.570;7.090;2022-11-15T09:41:37;13.70;1.00
4548;DHT22;2286;51.570;7.090;2022-11-15T09:44:25;13.80;99.90
4548;DHT22;2286;51.570;7.090;2022-11-15T09:46:58;13.90;99.90
4548;DHT22;2286;51.570;7.090;2022-11-15T09:49:26;14.00;99.90
4548;DHT22;2286;51.570;7.090;2022-11-15T09:51:55;14.00;99.90
4548;DHT22;2286;51.570;7.090;2022-11-15T09:54:28;14.10;1.00
4548;DHT22;2286;51.570;7.090;2022-11-15T09:57:04;13.90;99.90
4548;DHT22;2286;51.570;7.090;2022-11-15T09:59:55;13.90;1.00
4548;DHT22;2286;51.570;7.090;2022-11-15T10:02:39;13.90;85.70
4548;DHT22;2286;51.570;7.090;2022-11-15T10:05:11;13.90;1.00
4548;DHT22;2286;51.570;7.090;2022-11-15T10:07:46;13.90;1.00
4548;DHT22;2286;51.570;7.090;2022-11-15T10:10:24;13.90;1.00
4548;DHT22;2286;51.570;7.090;2022-11-15T10:12:53;14.00;99.90
4548;DHT22;2286;51.570;7.090;2022-11-15T10:15:21;14.10;99.90
4548;DHT22;2286;51.570;7.090;2022-11-15T10:18:09;14.30;38.50
4548;DHT22;2286;51.570;7.090;2022-11-15T10:20:47;14.70;14.40
4548;DHT22;2286;51.570;7.090;2022-11-15T10:23:16;15.10;1.00
4548;DHT22;2286;51.570;7.090;2022-11-15T10:25:43;15.40;1.00
4548;DHT22;2286;51.570;7.090;2022-11-15T10:28:15;15.90;1.00
4548;DHT22;2286;51.570;7.090;2022-11-15T10:30:45;15.80;99.90
4548;DHT22;2286;51.570;7.090;2022-11-15T10:33:24;15.80;99.90
4548;DHT22;2286;51.570;7.090;2022-11-15T10:36:17;16.20;99.90
4548;DHT22;2286;51.570;7.090;2022-11-15T10:38:56;16.40;99.90
4548;DHT22;2286;51.570;7.090;2022-11-15T10:41:31;16.40;99.90
4548;DHT22;2286;51.570;7.090;2022-11-15T10:44:23;16.60;99.90
4548;DHT22;2286;51.570;7.090;2022-11-15T10:47:16;17.00;99.90
4548;DHT22;2286;51.570;7.090;2022-11-15T10:49:54;17.20;99.90
4548;DHT22;2286;51.570;7.090;2022-11-15T10:52:21;17.30;99.90
4548;DHT22;2286;51.570;7.090;2022-11-15T10:54:53;17.70;99.90
4548;DHT22;2286;51.570;7.090;2022-11-15T10:57:22;18.10;99.90
4548;DHT22;2286;51.570;7.090;2022-11-15T10:59:53;18.30;99.90
4548;DHT22;2286;51.570;7.090;2022-11-15T11:02:32;18.80;99.90
4548;DHT22;2286;51.570;7.090;2022-11-15T11:05:00;19.20;99.90
4548;DHT22;2286;51.570;7.090;2022-11-15T11:07:30;19.80;99.90
4548;DHT22;2286;51.570;7.090;2022-11-15T11:12:34;20.10;99.90
4548;DHT22;2286;51.570;7.090;2022-11-15T11:15:12;20.70;99.90
4548;DHT22;2286;51.570;7.090;2022-11-15T11:17:56;20.30;99.90
4548;DHT22;2286;51.570;7.090;2022-11-15T11:20:30;21.10;99.90
4548;DHT22;2286;51.570;7.090;2022-11-15T11:25:33;22.00;99.90
4548;DHT22;2286;51.570;7.090;2022-11-15T11:28:19;22.20;99.90
4548;DHT22;2286;51.570;7.090;2022-11-15T11:30:58;22.60;99.90
4548;DHT22;2286;51.570;7.090;2022-11-15T11:33:31;22.40;99.90
4548;DHT22;2286;51.570;7.090;2022-11-15T11:36:08;22.60;99.90
4548;DHT22;2286;51.570;7.090;2022-11-15T11:38:49;23.20;99.90
4548;DHT22;2286;51.570;7.090;2022-11-15T11:41:29;23.30;99.90
4548;DHT22;2286;51.570;7.090;2022-11-15T11:44:12;23.50;99.90
4548;DHT22;2286;51.570;7.090;2022-11-15T11:46:55;24.20;99.90
4548;DHT22;2286;51.570;7.090;2022-11-15T11:49:28;24.00;99.90
4548;DHT22;2286;51.570;7.090;2022-11-15T11:52:01;23.80;99.90
4548;DHT22;2286;51.570;7.090;2022-11-15T11:54:34;23.80;99.90
4548;DHT22;2286;51.570;7.090;2022-11-15T11:57:07;24.60;99.90
4548;DHT22;2286;51.570;7.090;2022-11-15T11:59:41;24.60;99.90
4548;DHT22;2286;51.570;7.090;2022-11-15T12:02:15;23.40;99.90
4548;DHT22;2286;51.570;7.090;2022-11-15T12:04:47;22.60;99.90
4548;DHT22;2286;51.570;7.090;2022-11-15T12:07:19;22.60;99.90
4548;DHT22;2286;51.570;7.090;2022-11-15T12:09:53;23.00;99.90
4548;DHT22;2286;51.570;7.090;2022-11-15T12:12:27;22.70;99.90
4548;DHT22;2286;51.570;7.090;2022-11-15T12:15:00;22.80;99.90
4548;DHT22;2286;51.570;7.090;2022-11-15T12:17:31;23.50;99.90
4548;DHT22;2286;51.570;7.090;2022-11-15T12:19:59;23.70;99.90
4548;DHT22;2286;51.570;7.090;2022-11-15T12:22:35;22.80;99.90
4548;DHT22;2286;51.570;7.090;2022-11-15T12:25:07;22.70;99.90
4548;DHT22;2286;51.570;7.090;2022-11-15T12:27:38;23.50;99.90
4548;DHT22;2286;51.570;7.090;2022-11-15T12:30:11;23.20;99.90
4548;DHT22;2286;51.570;7.090;2022-11-15T12:32:50;22.50;99.90
4548;DHT22;2286;51.570;7.090;2022-11-15T12:35:25;22.80;99.90
4548;DHT22;2286;51.570;7.090;2022-11-15T12:37:54;23.30;99.90
4548;DHT22;2286;51.570;7.090;2022-11-15T12:40:32;24.00;99.90
4548;DHT22;2286;51.570;7.090;2022-11-15T12:45:52;24.10;99.90
4548;DHT22;2286;51.570;7.090;2022-11-15T12:48:49;23.90;99.90
4548;DHT22;2286;51.570;7.090;2022-11-15T12:51:20;23.60;99.90
4548;DHT22;2286;51.570;7.090;2022-11-15T12:53:47;23.40;99.90
4548;DHT22;2286;51.570;7.090;2022-11-15T12:56:22;23.10;99.90
4548;DHT22;2286;51.570;7.090;2022-11-15T12:58:54;23.30;99.90
4548;DHT22;2286;51.570;7.090;2022-11-15T13:01:57;22.70;99.90
4548;DHT22;2286;51.570;7.090;2022-11-15T13:04:28;22.00;99.90
4548;DHT22;2286;51.570;7.090;2022-11-15T13:06:57;21.40;99.90
4548;DHT22;2286;51.570;7.090;2022-11-15T13:09:53;21.10;99.90
4548;DHT22;2286;51.570;7.090;2022-11-15T13:12:48;21.70;99.90
4548;DHT22;2286;51.570;7.090;2022-11-15T13:15:40;22.00;99.90
4548;DHT22;2286;51.570;7.090;2022-11-15T13:18:29;22.50;99.90
4548;DHT22;2286;51.570;7.090;2022-11-15T13:20:58;22.80;99.90
4548;DHT22;2286;51.570;7.090;2022-11-15T13:23:25;23.10;99.90
4548;DHT22;2286;51.570;7.090;2022-11-15T13:26:09;23.10;99.90
4548;DHT22;2286;51.570;7.090;2022-11-15T13:28:41;23.10;99.90
4548;DHT22;2286;51.570;7.090;2022-11-15T13:31:30;23.10;99.90
4548;DHT22;2286;51.570;7.090;2022-11-15T13:34:03;22.60;99.90
4548;DHT22;2286;51.570;7.090;2022-11-15T13:36:32;22.00;99.90
4548;DHT22;2286;51.570;7.090;2022-11-15T13:39:02;21.40;99.90
4548;DHT22;2286;51.570;7.090;2022-11-15T13:41:31;20.70;99.90
4548;DHT22;2286;51.570;7.090;2022-11-15T13:44:00;20.50;99.90
4548;DHT22;2286;51.570;7.090;2022-11-15T13:46:28;20.30;99.90
4548;DHT22;2286;51.570;7.090;2022-11-15T13:48:57;19.80;99.90
4548;DHT22;2286;51.570;7.090;2022-11-15T13:51:33;19.30;99.90
4548;DHT22;2286;51.570;7.090;2022-11-15T13:54:08;19.10;99.90
4548;DHT22;2286;51.570;7.090;2022-11-15T13:56:36;18.60;99.90
4548;DHT22;2286;51.570;7.090;2022-11-15T13:59:09;18.20;99.90
4548;DHT22;2286;51.570;7.090;2022-11-15T14:01:36;17.90;99.90
4548;DHT22;2286;51.570;7.090;2022-11-15T14:04:04;17.80;99.90
4548;DHT22;2286;51.570;7.090;2022-11-15T14:06:31;17.80;99.90
4548;DHT22;2286;51.570;7.090;2022-11-15T14:09:24;17.70;99.90
4548;DHT22;2286;51.570;7.090;2022-11-15T14:11:53;17.40;99.90
4548;DHT22;2286;51.570;7.090;2022-11-15T14:14:22;17.30;99.90
4548;DHT22;2286;51.570;7.090;2022-11-15T14:16:50;17.10;99.90
4548;DHT22;2286;51.570;7.090;2022-11-15T14:19:39;17.00;99.90
4548;DHT22;2286;51.570;7.090;2022-11-15T14:22:24;16.70;99.90
4548;DHT22;2286;51.570;7.090;2022-11-15T14:25:14;16.60;99.90
4548;DHT22;2286;51.570;7.090;2022-11-15T14:27:42;16.50;99.90
4548;DHT22;2286;51.570;7.090;2022-11-15T14:30:14;16.50;99.90
4548;DHT22;2286;51.570;7.090;2022-11-15T14:32:44;16.50;99.90
4548;DHT22;2286;51.570;7.090;2022-11-15T14:35:14;16.70;99.90
4548;DHT22;2286;51.570;7.090;2022-11-15T14:37:42;16.80;99.90
4548;DHT22;2286;51.570;7.090;2022-11-15T14:40:15;16.80;99.90
4548;DHT22;2286;51.570;7.090;2022-11-15T14:42:43;16.50;99.90
4548;DHT22;2286;51.570;7.090;2022-11-15T14:45:13;16.40;99.90
4548;DHT22;2286;51.570;7.090;2022-11-15T14:47:41;16.10;99.90
4548;DHT22;2286;51.570;7.090;2022-11-15T14:50:11;15.90;99.90
4548;DHT22;2286;51.570;7.090;2022-11-15T14:52:39;15.90;99.90
4548;DHT22;2286;51.570;7.090;2022-11-15T14:55:16;15.80;99.90
4548;DHT22;2286;51.570;7.090;2022-11-15T14:57:45;15.80;99.90
4548;DHT22;2286;51.570;7.090;2022-11-15T15:00:13;15.80;99.90
4548;DHT22;2286;51.570;7.090;2022-11-15T15:02:41;15.60;99.90
4548;DHT22;2286;51.570;7.090;2022-11-15T15:05:16;15.60;99.90
4548;DHT22;2286;51.570;7.090;2022-11-15T15:07:44;15.40;99.90
4548;DHT22;2286;51.570;7.090;2022-11-15T15:10:12;15.30;99.90
4548;DHT22;2286;51.570;7.090;2022-11-15T15:12:41;15.30;99.90
4548;DHT22;2286;51.570;7.090;2022-11-15T15:15:13;15.20;99.90
4548;DHT22;2286;51.570;7.090;2022-11-15T15:17:41;15.10;99.90
4548;DHT22;2286;51.570;7.090;2022-11-15T15:20:09;14.90;99.90
4548;DHT22;2286;51.570;7.090;2022-11-15T15:22:36;14.90;99.90
4548;DHT22;2286;51.570;7.090;2022-11-15T15:25:19;14.80;99.90
4548;DHT22;2286;51.570;7.090;2022-11-15T15:27:48;14.70;99.90
4548;DHT22;2286;51.570;7.090;2022-11-15T15:30:15;14.60;99.90
4548;DHT22;2286;51.570;7.090;2022-11-15T15:32:42;14.70;99.90
4548;DHT22;2286;51.570;7.090;2022-11-15T15:35:12;14.50;1.00
4548;DHT22;2286;51.570;7.090;2022-11-15T15:37:39;14.50;1.00
4548;DHT22;2286;51.570;7.090;2022-11-15T15:40:12;14.50;1.00
4548;DHT22;2286;51.570;7.090;2022-11-15T15:42:41;14.40;1.00
4548;DHT22;2286;51.570;7.090;2022-11-15T15:45:10;14.40;1.00
4548;DHT22;2286;51.570;7.090;2022-11-15T15:47:37;14.40;1.00
4548;DHT22;2286;51.570;7.090;2022-11-15T15:50:23;14.30;1.00
4548;DHT22;2286;51.570;7.090;2022-11-15T15:52:51;14.20;1.00
4548;DHT22;2286;51.570;7.090;2022-11-15T15:55:18;14.30;1.00
4548;DHT22;2286;51.570;7.090;2022-11-15T15:57:45;14.20;1.00
4548;DHT22;2286;51.570;7.090;2022-11-15T16:00:15;14.10;1.00
4548;DHT22;2286;51.570;7.090;2022-11-15T16:02:42;14.10;1.00
4548;DHT22;2286;51.570;7.090;2022-11-15T16:05:10;14.10;1.00
4548;DHT22;2286;51.570;7.090;2022-11-15T16:07:38;14.10;1.00
4548;DHT22;2286;51.570;7.090;2022-11-15T16:10:19;14.00;1.00
4548;DHT22;2286;51.570;7.090;2022-11-15T16:12:46;14.00;1.00
4548;DHT22;2286;51.570;7.090;2022-11-15T16:15:15;13.90;18.20
4548;DHT22;2286;51.570;7.090;2022-11-15T16:17:45;13.90;1.00
4548;DHT22;2286;51.570;7.090;2022-11-15T16:20:23;13.90;32.50
4548;DHT22;2286;51.570;7.090;2022-11-15T16:22:53;13.90;43.30
4548;DHT22;2286;51.570;7.090;2022-11-15T16:25:20;13.80;43.70
4548;DHT22;2286;51.570;7.090;2022-11-15T16:27:47;13.70;99.90
4548;DHT22;2286;51.570;7.090;2022-11-15T16:30:18;13.70;99.90
4548;DHT22;2286;51.570;7.090;2022-11-15T16:32:45;13.70;99.90
4548;DHT22;2286;51.570;7.090;2022-11-15T16:35:13;13.70;99.90
4548;DHT22;2286;51.570;7.090;2022-11-15T16:37:41;13.70;99.90